createdAt,value
2016-12-13T00:00:22.981Z,0
2016-12-13T00:01:34.184Z,0
2016-12-13T00:02:45.371Z,0
2016-12-13T00:03:56.563Z,0
2016-12-13T00:05:08.112Z,0
2016-12-13T00:06:19.261Z,0
2016-12-13T00:07:30.408Z,0
2016-12-13T00:08:41.576Z,0
2016-12-13T00:09:52.753Z,0
2016-12-13T00:11:04.400Z,0
2016-12-13T00:12:15.596Z,0
2016-12-13T00:13:26.734Z,0
2016-12-13T00:14:38.349Z,0
2016-12-13T00:15:49.769Z,0
2016-12-13T00:17:01.135Z,0
2016-12-13T00:18:12.509Z,0
2016-12-13T00:19:23.826Z,0
2016-12-13T00:20:34.935Z,0
2016-12-13T00:21:46.082Z,0
2016-12-13T00:22:57.254Z,0
2016-12-13T00:24:08.434Z,0
2016-12-13T00:25:19.575Z,0
2016-12-13T00:26:30.683Z,0
2016-12-13T00:27:42.198Z,0
2016-12-13T00:28:53.416Z,0
2016-12-13T00:30:04.655Z,0
2016-12-13T00:31:15.880Z,0
2016-12-13T00:32:26.999Z,0
2016-12-13T00:33:38.241Z,0
2016-12-13T00:34:49.408Z,0
2016-12-13T00:36:00.630Z,0
2016-12-13T00:37:11.788Z,0
2016-12-13T00:38:23.117Z,0
2016-12-13T00:39:34.616Z,0
2016-12-13T00:40:45.897Z,0
2016-12-13T00:41:57.647Z,0
2016-12-13T00:43:08.805Z,0
2016-12-13T00:44:19.937Z,0
2016-12-13T00:45:31.098Z,0
2016-12-13T00:46:42.207Z,0
2016-12-13T00:47:53.396Z,0
2016-12-13T00:49:04.626Z,0
2016-12-13T00:50:15.796Z,0
2016-12-13T00:51:27.259Z,0
2016-12-13T00:52:38.427Z,0
2016-12-13T00:53:49.659Z,0
2016-12-13T00:55:00.825Z,0
2016-12-13T00:56:11.938Z,0
2016-12-13T00:57:25.265Z,0
2016-12-13T00:58:36.401Z,0
2016-12-13T00:59:47.685Z,0
2016-12-13T01:00:58.884Z,0
2016-12-13T01:02:10.047Z,0
2016-12-13T01:03:21.228Z,0
2016-12-13T01:04:32.338Z,0
2016-12-13T01:05:43.562Z,0
2016-12-13T01:06:54.706Z,0
2016-12-13T01:08:05.907Z,0
2016-12-13T01:09:17.100Z,0
2016-12-13T01:10:28.922Z,0
2016-12-13T01:11:40.376Z,0
2016-12-13T01:12:51.539Z,0
2016-12-13T01:14:02.680Z,0
2016-12-13T01:15:13.863Z,0
2016-12-13T01:16:25.081Z,0
2016-12-13T01:17:36.194Z,0
2016-12-13T01:18:47.394Z,0
2016-12-13T01:19:58.568Z,0
2016-12-13T01:21:09.720Z,0
2016-12-13T01:22:20.944Z,0
2016-12-13T01:23:32.128Z,0
2016-12-13T01:24:43.347Z,0
2016-12-13T01:25:54.443Z,0
2016-12-13T01:27:05.624Z,0
2016-12-13T01:28:16.809Z,0
2016-12-13T01:29:27.923Z,0
2016-12-13T01:30:39.144Z,0
2016-12-13T01:31:50.242Z,0
2016-12-13T01:33:01.424Z,0
2016-12-13T01:34:12.593Z,0
2016-12-13T01:35:23.795Z,0
2016-12-13T01:36:34.987Z,0
2016-12-13T01:37:46.322Z,0
2016-12-13T01:38:57.496Z,0
2016-12-13T01:40:08.727Z,0
2016-12-13T01:41:21.658Z,0
2016-12-13T01:42:33.102Z,0
2016-12-13T01:43:44.634Z,0
2016-12-13T01:44:55.813Z,0
2016-12-13T01:46:07.319Z,0
2016-12-13T01:47:18.493Z,0
2016-12-13T01:48:29.673Z,0
2016-12-13T01:49:40.857Z,0
2016-12-13T01:50:51.971Z,0
2016-12-13T01:52:03.205Z,0
2016-12-13T01:53:14.377Z,0
2016-12-13T01:54:25.580Z,0
2016-12-13T01:55:36.705Z,0
2016-12-13T01:56:47.841Z,0
2016-12-13T01:57:58.981Z,0
2016-12-13T01:59:10.111Z,0
2016-12-13T02:00:21.386Z,0
2016-12-13T02:01:32.487Z,0
2016-12-13T02:02:43.613Z,0
2016-12-13T02:03:54.743Z,0
2016-12-13T02:05:05.912Z,0
2016-12-13T02:06:17.551Z,0
2016-12-13T02:07:28.713Z,0
2016-12-13T02:08:39.857Z,0
2016-12-13T02:09:50.982Z,0
2016-12-13T02:11:04.348Z,0
2016-12-13T02:12:15.521Z,0
2016-12-13T02:13:26.739Z,0
2016-12-13T02:14:37.945Z,0
2016-12-13T02:15:49.069Z,0
2016-12-13T02:17:00.197Z,0
2016-12-13T02:18:11.365Z,0
2016-12-13T02:19:22.833Z,0
2016-12-13T02:20:34.000Z,0
2016-12-13T02:21:45.125Z,0
2016-12-13T02:22:56.302Z,0
2016-12-13T02:24:07.864Z,0
2016-12-13T02:25:19.022Z,0
2016-12-13T02:26:30.196Z,0
2016-12-13T02:27:41.323Z,0
2016-12-13T02:28:52.461Z,0
2016-12-13T02:31:05.832Z,0
2016-12-13T02:32:18.194Z,0
2016-12-13T02:33:29.419Z,0
2016-12-13T02:34:55.418Z,0
2016-12-13T02:36:06.983Z,0
2016-12-13T02:37:18.202Z,0
2016-12-13T02:38:29.381Z,0
2016-12-13T02:39:40.805Z,0
2016-12-13T02:40:52.230Z,0
2016-12-13T02:42:03.432Z,0
2016-12-13T02:43:14.596Z,0
2016-12-13T02:44:25.980Z,0
2016-12-13T02:45:37.488Z,0
2016-12-13T02:46:48.616Z,0
2016-12-13T02:48:29.430Z,0
2016-12-13T02:49:40.840Z,0
2016-12-13T02:50:52.223Z,0
2016-12-13T02:52:03.382Z,0
2016-12-13T02:53:14.584Z,0
2016-12-13T02:54:26.005Z,0
2016-12-13T02:55:37.134Z,0
2016-12-13T02:56:48.934Z,0
2016-12-13T02:58:00.123Z,0
2016-12-13T02:59:11.353Z,0
2016-12-13T03:00:37.618Z,0
2016-12-13T03:01:49.065Z,0
2016-12-13T03:03:00.702Z,0
2016-12-13T03:04:11.884Z,0
2016-12-13T03:05:23.059Z,0
2016-12-13T03:06:34.238Z,0
2016-12-13T03:07:45.745Z,0
2016-12-13T03:08:57.447Z,0
2016-12-13T03:10:08.624Z,0
2016-12-13T03:11:19.804Z,0
2016-12-13T03:12:31.031Z,0
2016-12-13T03:13:42.271Z,0
2016-12-13T03:14:53.718Z,0
2016-12-13T03:16:05.217Z,0
2016-12-13T03:17:16.667Z,0
2016-12-13T03:18:28.102Z,0
2016-12-13T03:19:39.599Z,0
2016-12-13T03:20:51.031Z,0
2016-12-13T03:22:03.101Z,0
2016-12-13T03:23:14.231Z,0
2016-12-13T03:24:25.457Z,0
2016-12-13T03:25:36.588Z,0
2016-12-13T03:26:50.156Z,0
2016-12-13T03:28:01.604Z,0
2016-12-13T03:29:12.811Z,0
2016-12-13T03:30:23.940Z,0
2016-12-13T03:31:35.139Z,0
2016-12-13T03:32:46.816Z,0
2016-12-13T03:33:58.273Z,0
2016-12-13T03:35:09.381Z,0
2016-12-13T03:36:20.593Z,0
2016-12-13T03:37:31.726Z,0
2016-12-13T03:38:43.155Z,0
2016-12-13T03:39:55.252Z,0
2016-12-13T03:41:06.412Z,0
2016-12-13T03:42:17.562Z,0
2016-12-13T03:43:28.741Z,0
2016-12-13T03:44:40.112Z,0
2016-12-13T03:45:51.548Z,0
2016-12-13T03:47:02.692Z,0
2016-12-13T03:48:13.831Z,0
2016-12-13T03:49:40.089Z,0
2016-12-13T03:50:51.248Z,0
2016-12-13T03:52:02.397Z,0
2016-12-13T03:53:13.541Z,0
2016-12-13T03:54:24.709Z,0
2016-12-13T03:55:35.870Z,0
2016-12-13T03:56:47.068Z,0
2016-12-13T03:57:58.540Z,0
2016-12-13T03:59:09.704Z,0
2016-12-13T04:00:20.893Z,0
2016-12-13T04:01:32.341Z,0
2016-12-13T04:02:43.524Z,0
2016-12-13T04:03:54.647Z,0
2016-12-13T04:05:05.818Z,0
2016-12-13T04:06:16.973Z,0
2016-12-13T04:07:28.147Z,0
2016-12-13T04:08:39.667Z,0
2016-12-13T04:09:51.162Z,0
2016-12-13T04:11:02.390Z,0
2016-12-13T04:12:13.645Z,0
2016-12-13T04:13:24.887Z,0
2016-12-13T04:14:36.061Z,0
2016-12-13T04:15:47.281Z,0
2016-12-13T04:16:58.477Z,0
2016-12-13T04:18:09.715Z,0
2016-12-13T04:19:21.292Z,0
2016-12-13T04:20:32.518Z,0
2016-12-13T04:21:43.969Z,0
2016-12-13T04:22:55.133Z,0
2016-12-13T04:24:06.272Z,0
2016-12-13T04:25:17.459Z,0
2016-12-13T04:26:28.929Z,0
2016-12-13T04:27:40.116Z,0
2016-12-13T04:28:51.589Z,0
2016-12-13T04:30:02.777Z,0
2016-12-13T04:31:13.891Z,0
2016-12-13T04:32:25.241Z,0
2016-12-13T04:33:51.211Z,0
2016-12-13T04:35:02.314Z,0
2016-12-13T04:36:13.527Z,0
2016-12-13T04:37:24.796Z,0
2016-12-13T04:38:36.116Z,0
2016-12-13T04:39:47.306Z,0
2016-12-13T04:41:00.651Z,0
2016-12-13T04:42:12.122Z,0
2016-12-13T04:43:23.522Z,0
2016-12-13T04:44:34.686Z,0
2016-12-13T04:45:45.892Z,0
2016-12-13T04:46:57.118Z,0
2016-12-13T04:48:08.234Z,0
2016-12-13T04:49:19.772Z,0
2016-12-13T04:50:30.918Z,0
2016-12-13T04:51:42.033Z,0
2016-12-13T04:52:53.174Z,0
2016-12-13T04:54:05.015Z,0
2016-12-13T04:55:16.219Z,0
2016-12-13T04:56:27.716Z,0
2016-12-13T04:57:38.881Z,0
2016-12-13T04:58:50.019Z,0
2016-12-13T05:00:01.473Z,0
2016-12-13T05:01:12.790Z,0
2016-12-13T05:02:23.931Z,0
2016-12-13T05:03:35.200Z,0
2016-12-13T05:04:46.455Z,0
2016-12-13T05:05:57.559Z,0
2016-12-13T05:07:09.308Z,0
2016-12-13T05:08:22.185Z,0
2016-12-13T05:09:33.642Z,0
2016-12-13T05:10:44.793Z,0
2016-12-13T05:11:55.906Z,0
2016-12-13T05:13:07.394Z,0
2016-12-13T05:14:18.779Z,0
2016-12-13T05:15:30.137Z,0
2016-12-13T05:16:41.252Z,0
2016-12-13T05:17:52.491Z,0
2016-12-13T05:19:03.898Z,0
2016-12-13T05:20:15.482Z,0
2016-12-13T05:21:27.019Z,0
2016-12-13T05:22:38.354Z,0
2016-12-13T05:23:49.487Z,0
2016-12-13T05:25:00.673Z,0
2016-12-13T05:26:11.893Z,0
2016-12-13T05:27:23.176Z,0
2016-12-13T05:28:34.330Z,0
2016-12-13T05:29:45.860Z,0
2016-12-13T05:30:57.142Z,0
2016-12-13T05:32:08.361Z,0
2016-12-13T05:33:33.063Z,0
2016-12-13T05:34:44.347Z,0
2016-12-13T05:35:57.260Z,0
2016-12-13T05:37:08.628Z,0
2016-12-13T05:38:28.939Z,0
2016-12-13T05:39:40.101Z,0
2016-12-13T05:40:51.253Z,0
2016-12-13T05:42:02.438Z,0
2016-12-13T05:43:13.627Z,0
2016-12-13T05:44:24.898Z,0
2016-12-13T05:45:37.881Z,0
2016-12-13T05:46:58.687Z,0
2016-12-13T05:48:09.872Z,0
2016-12-13T05:49:21.936Z,0
2016-12-13T05:50:33.161Z,0
2016-12-13T05:51:45.195Z,0
2016-12-13T05:52:56.575Z,0
2016-12-13T05:54:08.608Z,0
2016-12-13T05:55:22.886Z,0
2016-12-13T05:56:34.972Z,0
2016-12-13T05:57:47.472Z,0
2016-12-13T05:58:59.257Z,0
2016-12-13T06:00:11.312Z,0
2016-12-13T06:01:22.926Z,0
2016-12-13T06:02:34.227Z,0
2016-12-13T06:03:45.575Z,0
2016-12-13T06:04:57.029Z,0
2016-12-13T06:06:08.281Z,0
2016-12-13T06:07:19.447Z,0
2016-12-13T06:08:30.583Z,0
2016-12-13T06:09:41.834Z,0
2016-12-13T06:10:52.991Z,0
2016-12-13T06:12:04.729Z,0
2016-12-13T06:13:15.864Z,0
2016-12-13T06:14:26.987Z,0
2016-12-13T06:15:38.188Z,0
2016-12-13T06:16:49.743Z,0
2016-12-13T06:18:01.503Z,0
2016-12-13T06:19:12.707Z,0
2016-12-13T06:20:23.898Z,0
2016-12-13T06:21:35.196Z,0
2016-12-13T06:22:46.405Z,0
2016-12-13T06:23:58.182Z,0
2016-12-13T06:25:09.457Z,0
2016-12-13T06:26:20.592Z,0
2016-12-13T06:27:31.797Z,0
2016-12-13T06:28:43.242Z,0
2016-12-13T06:29:54.934Z,0
2016-12-13T06:31:06.107Z,0
2016-12-13T06:32:17.365Z,0
2016-12-13T06:33:28.566Z,0
2016-12-13T06:34:39.775Z,0
2016-12-13T06:35:51.511Z,0
2016-12-13T06:37:02.980Z,0
2016-12-13T06:38:14.125Z,0
2016-12-13T06:39:25.303Z,0
2016-12-13T06:40:36.748Z,0
2016-12-13T06:41:48.525Z,0
2016-12-13T06:42:59.663Z,0
2016-12-13T06:44:11.120Z,0
2016-12-13T06:45:22.660Z,0
2016-12-13T06:46:34.136Z,0
2016-12-13T06:47:45.808Z,4
2016-12-13T06:48:57.328Z,0
2016-12-13T06:50:08.475Z,4
2016-12-13T06:51:19.756Z,4
2016-12-13T06:52:30.892Z,4
2016-12-13T06:53:42.865Z,0
2016-12-13T06:54:54.338Z,4
2016-12-13T06:56:05.496Z,4
2016-12-13T06:57:16.675Z,8
2016-12-13T06:58:28.485Z,4
2016-12-13T06:59:40.094Z,8
2016-12-13T07:00:51.257Z,8
2016-12-13T07:02:02.448Z,12
2016-12-13T07:03:13.628Z,12
2016-12-13T07:04:25.158Z,12
2016-12-13T07:05:36.883Z,12
2016-12-13T07:06:48.073Z,12
2016-12-13T07:07:59.291Z,20
2016-12-13T07:09:12.925Z,20
2016-12-13T07:10:24.085Z,24
2016-12-13T07:11:35.781Z,24
2016-12-13T07:12:47.849Z,32
2016-12-13T07:14:00.118Z,36
2016-12-13T07:15:11.540Z,36
2016-12-13T07:16:22.704Z,40
2016-12-13T07:17:34.108Z,40
2016-12-13T07:18:46.319Z,44
2016-12-13T07:19:58.099Z,52
2016-12-13T07:21:09.328Z,56
2016-12-13T07:22:20.477Z,60
2016-12-13T07:23:34.564Z,64
2016-12-13T07:24:48.463Z,68
2016-12-13T07:26:00.632Z,76
2016-12-13T07:27:13.121Z,80
2016-12-13T07:28:25.217Z,80
2016-12-13T07:29:37.572Z,80
2016-12-13T07:30:49.578Z,88
2016-12-13T07:32:01.145Z,96
2016-12-13T07:33:12.854Z,104
2016-12-13T07:34:24.581Z,108
2016-12-13T07:35:36.708Z,108
2016-12-13T07:36:48.321Z,112
2016-12-13T07:38:00.109Z,120
2016-12-13T07:39:11.646Z,144
2016-12-13T07:40:22.773Z,184
2016-12-13T07:41:34.278Z,208
2016-12-13T07:42:45.408Z,256
2016-12-13T07:43:56.837Z,280
2016-12-13T07:45:08.334Z,316
2016-12-13T07:46:19.555Z,344
2016-12-13T07:47:31.116Z,360
2016-12-13T07:48:42.307Z,328
2016-12-13T07:49:53.718Z,396
2016-12-13T07:51:04.964Z,396
2016-12-13T07:52:16.375Z,344
2016-12-13T07:53:27.545Z,404
2016-12-13T07:54:38.706Z,352
2016-12-13T07:55:49.949Z,340
2016-12-13T07:57:01.176Z,340
2016-12-13T07:58:12.632Z,344
2016-12-13T07:59:24.285Z,360
2016-12-13T08:00:35.430Z,404
2016-12-13T08:01:46.623Z,400
2016-12-13T08:02:57.820Z,412
2016-12-13T08:04:09.891Z,440
2016-12-13T08:05:21.310Z,496
2016-12-13T08:06:32.817Z,568
2016-12-13T08:07:44.218Z,616
2016-12-13T08:08:55.749Z,612
2016-12-13T08:10:07.286Z,864
2016-12-13T08:11:18.829Z,832
2016-12-13T08:12:30.551Z,840
2016-12-13T08:13:41.686Z,916
2016-12-13T08:14:52.839Z,1064
2016-12-13T08:16:04.041Z,976
2016-12-13T08:17:15.515Z,1076
2016-12-13T08:18:26.631Z,1020
2016-12-13T08:19:38.125Z,920
2016-12-13T08:20:49.517Z,908
2016-12-13T08:22:01.289Z,996
2016-12-13T08:23:15.295Z,1024
2016-12-13T08:24:26.457Z,972
2016-12-13T08:25:37.589Z,1084
2016-12-13T08:26:49.313Z,956
2016-12-13T08:28:15.974Z,936
2016-12-13T08:29:27.449Z,860
2016-12-13T08:30:38.581Z,820
2016-12-13T08:31:49.723Z,616
2016-12-13T08:33:00.874Z,604
2016-12-13T08:34:12.049Z,692
2016-12-13T08:35:23.535Z,740
2016-12-13T08:36:35.327Z,660
2016-12-13T08:37:46.457Z,796
2016-12-13T08:38:57.994Z,824
2016-12-13T08:40:09.212Z,816
2016-12-13T08:41:20.675Z,780
2016-12-13T08:42:32.196Z,724
2016-12-13T08:43:43.344Z,752
2016-12-13T08:44:54.529Z,696
2016-12-13T08:46:06.017Z,688
2016-12-13T08:47:17.781Z,744
2016-12-13T08:48:29.499Z,816
2016-12-13T08:49:40.705Z,748
2016-12-13T08:50:51.953Z,720
2016-12-13T08:52:03.460Z,844
2016-12-13T08:53:14.892Z,792
2016-12-13T08:54:26.395Z,720
2016-12-13T08:55:37.553Z,720
2016-12-13T08:56:48.734Z,696
2016-12-13T08:58:00.346Z,832
2016-12-13T08:59:12.304Z,768
2016-12-13T09:00:23.891Z,804
2016-12-13T09:01:35.360Z,896
2016-12-13T09:02:46.817Z,880
2016-12-13T09:03:58.564Z,1024
2016-12-13T09:05:10.619Z,1052
2016-12-13T09:06:22.473Z,928
2016-12-13T09:07:34.046Z,956
2016-12-13T09:08:45.640Z,996
2016-12-13T09:09:57.715Z,1120
2016-12-13T09:11:09.539Z,1120
2016-12-13T09:12:21.381Z,1196
2016-12-13T09:13:32.610Z,1152
2016-12-13T09:14:43.794Z,1104
2016-12-13T09:15:55.357Z,964
2016-12-13T09:17:07.063Z,844
2016-12-13T09:18:18.499Z,892
2016-12-13T09:19:29.627Z,932
2016-12-13T09:20:41.098Z,928
2016-12-13T09:21:52.288Z,992
2016-12-13T09:23:03.675Z,1012
2016-12-13T09:24:15.154Z,1060
2016-12-13T09:25:26.422Z,1032
2016-12-13T09:26:37.545Z,1016
2016-12-13T09:27:48.764Z,1044
2016-12-13T09:29:00.211Z,1024
2016-12-13T09:30:11.651Z,1036
2016-12-13T09:31:22.849Z,1124
2016-12-13T09:32:34.071Z,1156
2016-12-13T09:33:45.253Z,1104
2016-12-13T09:34:56.645Z,1304
2016-12-13T09:36:08.205Z,1388
2016-12-13T09:37:21.620Z,1380
2016-12-13T09:38:33.053Z,1552
2016-12-13T09:39:44.729Z,1792
2016-12-13T09:40:56.316Z,1568
2016-12-13T09:42:07.970Z,1360
2016-12-13T09:43:19.112Z,1436
2016-12-13T09:44:30.429Z,1332
2016-12-13T09:45:41.713Z,1368
2016-12-13T09:46:53.442Z,1536
2016-12-13T09:48:05.047Z,1680
2016-12-13T09:49:16.231Z,1528
2016-12-13T09:50:27.547Z,1464
2016-12-13T09:51:39.246Z,1448
2016-12-13T09:52:51.052Z,1360
2016-12-13T09:54:03.065Z,1392
2016-12-13T09:55:14.578Z,1548
2016-12-13T09:56:25.918Z,1308
2016-12-13T09:57:37.254Z,1268
2016-12-13T09:58:48.722Z,1468
2016-12-13T10:00:00.343Z,1428
2016-12-13T10:01:12.395Z,1412
2016-12-13T10:02:24.215Z,1328
2016-12-13T10:03:35.487Z,1324
2016-12-13T10:04:47.743Z,1232
2016-12-13T10:05:59.156Z,1348
2016-12-13T10:07:10.321Z,1184
2016-12-13T10:08:21.894Z,1172
2016-12-13T10:09:33.323Z,1168
2016-12-13T10:10:44.465Z,1288
2016-12-13T10:11:55.960Z,1288
2016-12-13T10:13:07.203Z,1288
2016-12-13T10:14:18.340Z,1188
2016-12-13T10:15:29.783Z,1236
2016-12-13T10:16:41.013Z,1264
2016-12-13T10:17:52.768Z,1228
2016-12-13T10:19:03.904Z,1144
2016-12-13T10:20:15.108Z,1104
2016-12-13T10:21:41.445Z,1372
2016-12-13T10:22:52.571Z,1260
2016-12-13T10:24:04.002Z,1180
2016-12-13T10:25:15.169Z,1220
2016-12-13T10:26:26.394Z,1088
2016-12-13T10:27:38.163Z,1032
2016-12-13T10:28:49.561Z,852
2016-12-13T10:30:01.332Z,852
2016-12-13T10:31:12.660Z,968
2016-12-13T10:32:23.912Z,928
2016-12-13T10:33:35.105Z,916
2016-12-13T10:34:47.115Z,940
2016-12-13T10:35:58.582Z,960
2016-12-13T10:37:09.877Z,908
2016-12-13T10:38:21.092Z,944
2016-12-13T10:39:32.377Z,1028
2016-12-13T10:40:43.845Z,1028
2016-12-13T10:41:55.291Z,1024
2016-12-13T10:43:06.725Z,1048
2016-12-13T10:44:19.458Z,1056
2016-12-13T10:45:31.986Z,1100
2016-12-13T10:46:43.329Z,1084
2016-12-13T10:47:55.044Z,1068
2016-12-13T10:49:06.559Z,1016
2016-12-13T10:50:19.006Z,1176
2016-12-13T10:51:32.651Z,1124
2016-12-13T10:52:43.795Z,1128
2016-12-13T10:53:55.257Z,1040
2016-12-13T10:55:06.402Z,1184
2016-12-13T10:56:17.835Z,1076
2016-12-13T10:57:28.982Z,1036
2016-12-13T10:58:55.202Z,1024
2016-12-13T11:00:06.611Z,1020
2016-12-13T11:01:18.350Z,980
2016-12-13T11:02:29.894Z,1000
2016-12-13T11:03:42.293Z,1008
2016-12-13T11:04:53.514Z,980
2016-12-13T11:06:04.935Z,1068
2016-12-13T11:07:16.467Z,912
2016-12-13T11:08:27.695Z,856
2016-12-13T11:09:39.146Z,900
2016-12-13T11:10:50.302Z,792
2016-12-13T11:12:02.577Z,784
2016-12-13T11:13:15.958Z,836
2016-12-13T11:14:27.214Z,776
2016-12-13T11:15:38.369Z,856
2016-12-13T11:17:12.858Z,796
2016-12-13T11:18:24.288Z,872
2016-12-13T11:19:35.508Z,880
2016-12-13T11:20:46.686Z,864
2016-12-13T11:22:06.977Z,840
2016-12-13T11:23:18.107Z,864
2016-12-13T11:24:29.380Z,992
2016-12-13T11:25:40.529Z,1124
2016-12-13T11:26:51.649Z,1212
2016-12-13T11:28:02.789Z,1472
2016-12-13T11:29:14.576Z,1444
2016-12-13T11:30:26.077Z,1156
2016-12-13T11:31:37.284Z,1112
2016-12-13T11:32:48.419Z,1044
2016-12-13T11:33:59.618Z,1068
2016-12-13T11:35:10.821Z,1152
2016-12-13T11:36:21.999Z,1088
2016-12-13T11:37:33.657Z,1088
2016-12-13T11:38:44.940Z,1044
2016-12-13T11:39:56.210Z,1080
2016-12-13T11:41:07.483Z,1228
2016-12-13T11:42:19.415Z,1160
2016-12-13T11:43:30.891Z,1172
2016-12-13T11:44:42.583Z,1148
2016-12-13T11:45:53.845Z,1148
2016-12-13T11:47:05.063Z,1168
2016-12-13T11:48:16.326Z,1200
2016-12-13T11:49:27.888Z,1252
2016-12-13T11:50:41.562Z,1276
2016-12-13T11:51:53.869Z,1224
2016-12-13T11:53:05.401Z,1256
2016-12-13T11:54:16.804Z,1256
2016-12-13T11:55:30.004Z,1352
2016-12-13T11:56:43.338Z,1400
2016-12-13T11:57:54.664Z,1456
2016-12-13T11:59:06.045Z,1500
2016-12-13T12:00:17.755Z,1560
2016-12-13T12:01:29.068Z,1452
2016-12-13T12:02:56.960Z,1360
2016-12-13T12:04:09.674Z,1296
2016-12-13T12:05:22.282Z,1128
2016-12-13T12:06:36.132Z,1028
2016-12-13T12:07:47.448Z,1044
2016-12-13T12:08:58.697Z,968
2016-12-13T12:10:09.945Z,956
2016-12-13T12:11:21.781Z,1056
2016-12-13T12:12:33.285Z,1060
2016-12-13T12:13:44.527Z,964
2016-12-13T12:14:55.798Z,844
2016-12-13T12:16:07.169Z,844
2016-12-13T12:17:18.851Z,832
2016-12-13T12:18:30.127Z,832
2016-12-13T12:19:41.381Z,752
2016-12-13T12:20:52.582Z,740
2016-12-13T12:22:04.806Z,700
2016-12-13T12:23:16.360Z,608
2016-12-13T12:24:28.486Z,544
2016-12-13T12:25:42.227Z,532
2016-12-13T12:26:53.450Z,544
2016-12-13T12:28:04.666Z,544
2016-12-13T12:29:15.864Z,560
2016-12-13T12:30:27.109Z,592
2016-12-13T12:31:38.460Z,620
2016-12-13T12:32:49.980Z,628
2016-12-13T12:34:01.541Z,672
2016-12-13T12:35:12.804Z,708
2016-12-13T12:36:24.389Z,720
2016-12-13T12:37:35.731Z,700
2016-12-13T12:38:47.765Z,696
2016-12-13T12:39:59.550Z,680
2016-12-13T12:41:11.894Z,708
2016-12-13T12:42:24.540Z,700
2016-12-13T12:43:35.775Z,744
2016-12-13T12:44:48.367Z,780
2016-12-13T12:46:01.254Z,788
2016-12-13T12:47:12.884Z,796
2016-12-13T12:48:24.445Z,820
2016-12-13T12:49:35.574Z,900
2016-12-13T12:50:46.922Z,944
2016-12-13T12:51:58.463Z,1000
2016-12-13T12:53:10.474Z,1012
2016-12-13T12:54:21.737Z,1000
2016-12-13T12:55:33.208Z,1020
2016-12-13T12:56:44.719Z,976
2016-12-13T12:57:56.072Z,872
2016-12-13T12:59:07.597Z,872
2016-12-13T13:00:18.847Z,944
2016-12-13T13:01:30.224Z,1016
2016-12-13T13:02:41.634Z,992
2016-12-13T13:03:52.905Z,908
2016-12-13T13:05:04.033Z,900
2016-12-13T13:06:15.430Z,880
2016-12-13T13:07:26.723Z,936
2016-12-13T13:08:37.919Z,988
2016-12-13T13:09:49.328Z,1104
2016-12-13T13:11:01.396Z,1060
2016-12-13T13:12:12.980Z,1012
2016-12-13T13:13:24.158Z,976
2016-12-13T13:14:35.277Z,1240
2016-12-13T13:15:47.470Z,1000
2016-12-13T13:16:58.638Z,940
2016-12-13T13:18:10.021Z,912
2016-12-13T13:19:21.166Z,880
2016-12-13T13:20:34.578Z,728
2016-12-13T13:21:46.648Z,616
2016-12-13T13:22:57.896Z,616
2016-12-13T13:24:09.197Z,704
2016-12-13T13:25:20.596Z,712
2016-12-13T13:26:32.198Z,748
2016-12-13T13:27:43.397Z,764
2016-12-13T13:28:55.219Z,772
2016-12-13T13:30:06.705Z,776
2016-12-13T13:31:17.847Z,784
2016-12-13T13:32:30.040Z,748
2016-12-13T13:33:42.336Z,696
2016-12-13T13:34:53.769Z,656
2016-12-13T13:36:05.093Z,792
2016-12-13T13:37:18.126Z,828
2016-12-13T13:38:29.402Z,744
2016-12-13T13:39:40.991Z,728
2016-12-13T13:40:52.210Z,732
2016-12-13T13:42:03.452Z,684
2016-12-13T13:43:15.058Z,644
2016-12-13T13:44:26.822Z,560
2016-12-13T13:45:38.222Z,544
2016-12-13T13:46:50.035Z,512
2016-12-13T13:48:02.189Z,464
2016-12-13T13:49:14.387Z,412
2016-12-13T13:50:25.934Z,412
2016-12-13T13:51:37.328Z,416
2016-12-13T13:52:48.753Z,372
2016-12-13T13:54:00.163Z,304
2016-12-13T13:55:12.086Z,300
2016-12-13T13:56:23.294Z,292
2016-12-13T13:57:34.853Z,324
2016-12-13T13:58:46.063Z,356
2016-12-13T13:59:57.780Z,412
2016-12-13T14:01:09.241Z,440
2016-12-13T14:02:20.946Z,448
2016-12-13T14:03:32.417Z,408
2016-12-13T14:04:44.127Z,380
2016-12-13T14:05:55.386Z,340
2016-12-13T14:07:06.645Z,312
2016-12-13T14:08:18.866Z,296
2016-12-13T14:09:30.369Z,264
2016-12-13T14:10:42.388Z,232
2016-12-13T14:11:54.100Z,212
2016-12-13T14:13:05.271Z,176
2016-12-13T14:14:17.591Z,152
2016-12-13T14:15:44.362Z,144
2016-12-13T14:16:55.684Z,128
2016-12-13T14:18:07.357Z,116
2016-12-13T14:19:19.011Z,100
2016-12-13T14:20:30.300Z,100
2016-12-13T14:21:42.439Z,96
2016-12-13T14:22:54.131Z,96
2016-12-13T14:24:05.293Z,96
2016-12-13T14:25:16.657Z,96
2016-12-13T14:26:37.390Z,108
2016-12-13T14:27:49.082Z,136
2016-12-13T14:29:02.423Z,160
2016-12-13T14:32:24.261Z,164
2016-12-13T14:35:31.930Z,152
2016-12-13T14:37:00.380Z,140
2016-12-13T14:38:41.914Z,140
2016-12-13T14:42:03.858Z,96
2016-12-13T14:45:49.971Z,88
2016-12-13T14:47:01.374Z,84
2016-12-13T14:48:12.561Z,88
2016-12-13T14:49:53.559Z,104
2016-12-13T14:54:57.018Z,56
2016-12-13T14:56:23.144Z,56
2016-12-13T14:58:04.010Z,56
2016-12-13T14:59:16.102Z,52
2016-12-13T15:00:27.701Z,44
2016-12-13T15:02:08.778Z,48
2016-12-13T15:05:16.394Z,44
2016-12-13T15:06:43.443Z,48
2016-12-13T15:07:55.687Z,48
2016-12-13T15:09:07.197Z,48
2016-12-13T15:10:33.239Z,40
2016-12-13T15:13:40.941Z,36
2016-12-13T15:14:52.458Z,32
2016-12-13T15:16:04.543Z,32
2016-12-13T15:19:12.484Z,24
2016-12-13T15:20:24.131Z,24
2016-12-13T15:21:50.508Z,20
2016-12-13T15:25:12.821Z,12
2016-12-13T15:26:53.885Z,8
2016-12-13T15:28:05.766Z,8
2016-12-13T15:29:17.335Z,8
2016-12-13T15:30:28.650Z,8
2016-12-13T15:33:51.927Z,8
2016-12-13T15:35:03.938Z,8
2016-12-13T15:36:15.534Z,4
2016-12-13T15:37:28.107Z,4
2016-12-13T15:38:55.745Z,8
2016-12-13T15:42:19.850Z,4
2016-12-13T15:43:31.144Z,4
2016-12-13T15:44:57.387Z,4
2016-12-13T15:46:08.682Z,0
2016-12-13T15:51:56.964Z,0
2016-12-13T15:57:00.361Z,0
2016-12-13T15:58:27.306Z,0
2016-12-13T15:59:38.905Z,0
2016-12-13T16:00:50.496Z,0
2016-12-13T16:02:46.258Z,0
2016-12-13T16:03:57.740Z,0
2016-12-13T16:05:24.015Z,0
2016-12-13T16:06:35.590Z,0
2016-12-13T16:08:01.563Z,0
2016-12-13T16:09:15.344Z,0
2016-12-13T16:10:27.280Z,0
2016-12-13T16:11:38.524Z,0
2016-12-13T16:12:51.172Z,0
2016-12-13T16:14:03.560Z,0
2016-12-13T16:15:14.800Z,0
2016-12-13T16:16:26.287Z,0
2016-12-13T16:17:37.455Z,0
2016-12-13T16:18:50.567Z,0
2016-12-13T16:20:01.788Z,0
2016-12-13T16:21:13.121Z,0
2016-12-13T16:22:25.062Z,0
2016-12-13T16:23:36.988Z,0
2016-12-13T16:24:48.186Z,0
2016-12-13T16:26:01.096Z,0
2016-12-13T16:27:14.602Z,0
2016-12-13T16:28:26.422Z,0
2016-12-13T16:29:38.469Z,0
2016-12-13T16:30:49.885Z,0
2016-12-13T16:32:01.261Z,0
2016-12-13T16:33:13.235Z,0
2016-12-13T16:34:24.769Z,0
2016-12-13T16:35:41.042Z,0
2016-12-13T16:36:55.682Z,0
2016-12-13T16:38:06.973Z,0
2016-12-13T16:39:18.442Z,0
2016-12-13T16:40:30.343Z,0
2016-12-13T16:41:56.609Z,0
2016-12-13T16:43:07.826Z,0
2016-12-13T16:44:20.304Z,0
2016-12-13T16:45:32.678Z,0
2016-12-13T16:46:49.545Z,0
2016-12-13T16:48:01.049Z,0
2016-12-13T16:49:12.355Z,0
2016-12-13T16:50:23.672Z,0
2016-12-13T16:51:35.517Z,0
2016-12-13T16:52:47.474Z,0
2016-12-13T16:54:00.210Z,0
2016-12-13T16:55:12.084Z,0
2016-12-13T16:56:23.404Z,0
2016-12-13T16:57:36.091Z,0
2016-12-13T16:58:47.674Z,0
2016-12-13T16:59:59.015Z,0
2016-12-13T17:01:11.907Z,0
2016-12-13T17:02:24.002Z,0
2016-12-13T17:03:36.263Z,0
2016-12-13T17:04:47.668Z,0
2016-12-13T17:05:59.302Z,0
2016-12-13T17:07:25.564Z,0
2016-12-13T17:08:37.522Z,0
2016-12-13T17:09:49.212Z,0
2016-12-13T17:11:01.263Z,0
2016-12-13T17:12:12.670Z,0
2016-12-13T17:13:24.481Z,0
2016-12-13T17:14:35.650Z,0
2016-12-13T17:15:47.040Z,0
2016-12-13T17:16:58.984Z,0
2016-12-13T17:18:10.578Z,0
2016-12-13T17:19:23.569Z,0
2016-12-13T17:20:48.329Z,0
2016-12-13T17:21:59.632Z,0
2016-12-13T17:23:10.876Z,0
2016-12-13T17:24:24.540Z,0
2016-12-13T17:25:36.332Z,0
2016-12-13T17:26:47.681Z,0
2016-12-13T17:27:59.222Z,0
2016-12-13T17:29:10.634Z,0
2016-12-13T17:30:42.029Z,0
2016-12-13T17:31:53.823Z,0
2016-12-13T17:33:06.285Z,0
2016-12-13T17:34:18.330Z,0
2016-12-13T17:35:30.041Z,0
2016-12-13T17:36:41.631Z,0
2016-12-13T17:37:53.356Z,0
2016-12-13T17:39:04.500Z,0
2016-12-13T17:40:15.798Z,0
2016-12-13T17:41:27.348Z,0
2016-12-13T17:42:38.661Z,0
2016-12-13T17:43:50.506Z,0